NKS721 KPIT-KLGA
Flight info
| Callsign | NKS721 |
|---|---|
| Flight time | 0h 51m |
| Altitude | 27000 |
| Route | TYROO PSB MIP4 |
| Aircraft | A320/M-SDE3FGHIRWY/LB1 |
Departure
| Time | 2026-05-03 23:57 |
|---|---|
| Airport | Pittsburgh International Airport (KPIT) |
Arrival
| Time | 2026-05-04 00:48 |
|---|---|
| Airport | LaGuardia Airport (KLGA) |
| Time | Latitude | Longitude | Altitude | Speed | Heading |
|---|---|---|---|---|---|
| 2026-05-03 23:27 | 40.49769 | -80.24754 | 1177 ft | 0 kts | 227° |
| 2026-05-03 23:48 | 40.49777 | -80.24744 | 1176 ft | 4 kts | 230° |
| 2026-05-03 23:48 | 40.49792 | -80.24715 | 1177 ft | 4 kts | 247° |
| 2026-05-03 23:49 | 40.49797 | -80.24683 | 1177 ft | 4 kts | 285° |
| 2026-05-03 23:49 | 40.49792 | -80.24666 | 1179 ft | 0 kts | 315° |
| 2026-05-03 23:49 | 40.49791 | -80.24666 | 1179 ft | 0 kts | 315° |
| 2026-05-03 23:52 | 40.49792 | -80.24666 | 1179 ft | 1 kts | 315° |
| 2026-05-03 23:52 | 40.49814 | -80.24695 | 1181 ft | 0 kts | 316° |
| 2026-05-03 23:53 | 40.49842 | -80.24730 | 1183 ft | 12 kts | 319° |
| 2026-05-03 23:53 | 40.49899 | -80.24810 | 1166 ft | 17 kts | 315° |
| 2026-05-03 23:53 | 40.49997 | -80.24849 | 1155 ft | 15 kts | 6° |
| 2026-05-03 23:54 | 40.50064 | -80.24772 | 1154 ft | 15 kts | 89° |
| 2026-05-03 23:54 | 40.50059 | -80.24625 | 1154 ft | 21 kts | 92° |
| 2026-05-03 23:54 | 40.50055 | -80.24393 | 1155 ft | 28 kts | 91° |
| 2026-05-03 23:54 | 40.50046 | -80.24129 | 1154 ft | 30 kts | 91° |
| 2026-05-03 23:55 | 40.50039 | -80.23848 | 1154 ft | 32 kts | 92° |
| 2026-05-03 23:55 | 40.50033 | -80.23584 | 1153 ft | 28 kts | 92° |
| 2026-05-03 23:55 | 40.50029 | -80.23400 | 1153 ft | 11 kts | 87° |
| 2026-05-03 23:55 | 40.50034 | -80.23383 | 1152 ft | 0 kts | 57° |
| 2026-05-03 23:56 | 40.50045 | -80.23372 | 1152 ft | 7 kts | 31° |
| 2026-05-03 23:56 | 40.50126 | -80.23388 | 1151 ft | 15 kts | 315° |
| 2026-05-03 23:56 | 40.50142 | -80.23526 | 1150 ft | 17 kts | 271° |
| 2026-05-03 23:56 | 40.50152 | -80.23922 | 1151 ft | 85 kts | 272° |
| 2026-05-03 23:57 | 40.50175 | -80.24981 | 1171 ft | 148 kts | 269° |
| 2026-05-03 23:57 | 40.50203 | -80.26360 | 1789 ft | 155 kts | 269° |
| 2026-05-03 23:57 | 40.50239 | -80.27850 | 2513 ft | 171 kts | 267° |
| 2026-05-03 23:57 | 40.50278 | -80.29510 | 3114 ft | 196 kts | 269° |
| 2026-05-03 23:58 | 40.50409 | -80.31437 | 3797 ft | 224 kts | 284° |
| 2026-05-03 23:58 | 40.51257 | -80.33259 | 4542 ft | 253 kts | 313° |
| 2026-05-03 23:58 | 40.52842 | -80.34407 | 5614 ft | 270 kts | 339° |
| 2026-05-03 23:58 | 40.54749 | -80.34548 | 6574 ft | 284 kts | 7° |
| 2026-05-03 23:59 | 40.56567 | -80.33470 | 7532 ft | 295 kts | 37° |
| 2026-05-03 23:59 | 40.57816 | -80.31319 | 8519 ft | 303 kts | 68° |
| 2026-05-03 23:59 | 40.58243 | -80.28600 | 9551 ft | 306 kts | 83° |
| 2026-05-03 23:59 | 40.58479 | -80.25801 | 10409 ft | 316 kts | 83° |
| 2026-05-04 00:00 | 40.58725 | -80.22814 | 10798 ft | 341 kts | 83° |
| 2026-05-04 00:00 | 40.58987 | -80.19628 | 11378 ft | 356 kts | 83° |
| 2026-05-04 00:00 | 40.59259 | -80.16351 | 12213 ft | 364 kts | 83° |
| 2026-05-04 00:00 | 40.59537 | -80.13026 | 13135 ft | 369 kts | 83° |
| 2026-05-04 00:01 | 40.59824 | -80.09650 | 14019 ft | 374 kts | 82° |
| 2026-05-04 00:01 | 40.60270 | -80.06249 | 14804 ft | 380 kts | 78° |
| 2026-05-04 00:01 | 40.60799 | -80.02811 | 15611 ft | 386 kts | 77° |
| 2026-05-04 00:01 | 40.61377 | -79.99284 | 16066 ft | 403 kts | 76° |
| 2026-05-04 00:02 | 40.61963 | -79.95796 | 16715 ft | 411 kts | 76° |
| 2026-05-04 00:02 | 40.62583 | -79.92100 | 17492 ft | 418 kts | 76° |
| 2026-05-04 00:02 | 40.63200 | -79.88349 | 18292 ft | 423 kts | 76° |
| 2026-05-04 00:02 | 40.63818 | -79.84529 | 19002 ft | 429 kts | 76° |
| 2026-05-04 00:03 | 40.64432 | -79.80664 | 19725 ft | 434 kts | 76° |
| 2026-05-04 00:03 | 40.65045 | -79.76750 | 20442 ft | 439 kts | 76° |
| 2026-05-04 00:03 | 40.65662 | -79.72796 | 21146 ft | 444 kts | 76° |
| 2026-05-04 00:03 | 40.66289 | -79.68804 | 21833 ft | 449 kts | 75° |
| 2026-05-04 00:04 | 40.66927 | -79.64753 | 22552 ft | 453 kts | 75° |
| 2026-05-04 00:04 | 40.67567 | -79.60676 | 23277 ft | 456 kts | 75° |
| 2026-05-04 00:04 | 40.68211 | -79.56566 | 23878 ft | 460 kts | 75° |
| 2026-05-04 00:04 | 40.68857 | -79.52427 | 24379 ft | 465 kts | 75° |
| 2026-05-04 00:05 | 40.69511 | -79.48233 | 24835 ft | 470 kts | 75° |
| 2026-05-04 00:05 | 40.70170 | -79.43986 | 25272 ft | 475 kts | 75° |
| 2026-05-04 00:05 | 40.70825 | -79.39759 | 25646 ft | 480 kts | 75° |
| 2026-05-04 00:05 | 40.71495 | -79.35422 | 26017 ft | 485 kts | 75° |
| 2026-05-04 00:06 | 40.72167 | -79.31046 | 26377 ft | 490 kts | 75° |
| 2026-05-04 00:06 | 40.72842 | -79.26623 | 26731 ft | 494 kts | 75° |
| 2026-05-04 00:06 | 40.73520 | -79.22173 | 26971 ft | 497 kts | 75° |
| 2026-05-04 00:06 | 40.74202 | -79.17701 | 27020 ft | 498 kts | 75° |
| 2026-05-04 00:07 | 40.74882 | -79.13231 | 27018 ft | 498 kts | 75° |
| 2026-05-04 00:07 | 40.75565 | -79.08752 | 27016 ft | 498 kts | 75° |
| 2026-05-04 00:07 | 40.76247 | -79.04285 | 27030 ft | 498 kts | 75° |
| 2026-05-04 00:07 | 40.76927 | -78.99801 | 27012 ft | 499 kts | 75° |
| 2026-05-04 00:08 | 40.77603 | -78.95315 | 27014 ft | 498 kts | 75° |
| 2026-05-04 00:08 | 40.78271 | -78.90887 | 27012 ft | 498 kts | 75° |
| 2026-05-04 00:08 | 40.78947 | -78.86403 | 27011 ft | 498 kts | 75° |
| 2026-05-04 00:08 | 40.79632 | -78.81923 | 27011 ft | 498 kts | 75° |
| 2026-05-04 00:09 | 40.80310 | -78.77438 | 27039 ft | 498 kts | 75° |
| 2026-05-04 00:09 | 40.80979 | -78.72955 | 27038 ft | 497 kts | 75° |
| 2026-05-04 00:09 | 40.81639 | -78.68477 | 27045 ft | 497 kts | 76° |
| 2026-05-04 00:09 | 40.82292 | -78.64009 | 27036 ft | 496 kts | 75° |
| 2026-05-04 00:10 | 40.82947 | -78.59542 | 27030 ft | 495 kts | 75° |
| 2026-05-04 00:10 | 40.83603 | -78.55074 | 27023 ft | 495 kts | 75° |
| 2026-05-04 00:10 | 40.84253 | -78.50615 | 27011 ft | 495 kts | 76° |
| 2026-05-04 00:10 | 40.84900 | -78.46147 | 27010 ft | 495 kts | 76° |
| 2026-05-04 00:11 | 40.85546 | -78.41684 | 27004 ft | 495 kts | 76° |
| 2026-05-04 00:11 | 40.86195 | -78.37230 | 27000 ft | 494 kts | 75° |
| 2026-05-04 00:11 | 40.86838 | -78.32829 | 26997 ft | 494 kts | 75° |
| 2026-05-04 00:11 | 40.87487 | -78.28373 | 26994 ft | 494 kts | 76° |
| 2026-05-04 00:12 | 40.88130 | -78.23915 | 26988 ft | 494 kts | 76° |
| 2026-05-04 00:12 | 40.88768 | -78.19459 | 26992 ft | 494 kts | 76° |
| 2026-05-04 00:12 | 40.89404 | -78.15000 | 26990 ft | 494 kts | 76° |
| 2026-05-04 00:12 | 40.90036 | -78.10543 | 26986 ft | 494 kts | 76° |
| 2026-05-04 00:13 | 40.90666 | -78.06078 | 26979 ft | 494 kts | 76° |
| 2026-05-04 00:13 | 40.91291 | -78.01622 | 26979 ft | 494 kts | 76° |
| 2026-05-04 00:13 | 40.91884 | -77.97155 | 26977 ft | 494 kts | 77° |
| 2026-05-04 00:13 | 40.92371 | -77.92649 | 26991 ft | 495 kts | 79° |
| 2026-05-04 00:14 | 40.92754 | -77.88184 | 27006 ft | 495 kts | 81° |
| 2026-05-04 00:14 | 40.93086 | -77.83646 | 27008 ft | 495 kts | 82° |
| 2026-05-04 00:14 | 40.93403 | -77.79122 | 27016 ft | 494 kts | 82° |
| 2026-05-04 00:14 | 40.93733 | -77.74606 | 27014 ft | 493 kts | 81° |
| 2026-05-04 00:15 | 40.94085 | -77.70101 | 27013 ft | 493 kts | 81° |
| 2026-05-04 00:15 | 40.94456 | -77.65598 | 27007 ft | 492 kts | 81° |
| 2026-05-04 00:15 | 40.94839 | -77.61104 | 27005 ft | 492 kts | 81° |
| 2026-05-04 00:15 | 40.95226 | -77.56608 | 27014 ft | 492 kts | 81° |
| 2026-05-04 00:16 | 40.95610 | -77.52113 | 27010 ft | 492 kts | 81° |
| 2026-05-04 00:16 | 40.95987 | -77.47617 | 27004 ft | 492 kts | 81° |
| 2026-05-04 00:16 | 40.96360 | -77.43115 | 26999 ft | 492 kts | 81° |
| 2026-05-04 00:16 | 40.96725 | -77.38620 | 26997 ft | 492 kts | 81° |
| 2026-05-04 00:17 | 40.97079 | -77.34184 | 26993 ft | 492 kts | 81° |
| 2026-05-04 00:17 | 40.97439 | -77.29682 | 26992 ft | 492 kts | 81° |
| 2026-05-04 00:17 | 40.97797 | -77.25182 | 26991 ft | 492 kts | 81° |
| 2026-05-04 00:17 | 40.98154 | -77.20684 | 26988 ft | 492 kts | 81° |
| 2026-05-04 00:18 | 40.98512 | -77.16185 | 26983 ft | 491 kts | 81° |
| 2026-05-04 00:18 | 40.98872 | -77.11684 | 26914 ft | 492 kts | 81° |
| 2026-05-04 00:18 | 40.99229 | -77.07193 | 26543 ft | 489 kts | 81° |
| 2026-05-04 00:18 | 40.99579 | -77.02731 | 26152 ft | 486 kts | 81° |
| 2026-05-04 00:19 | 40.99923 | -76.98308 | 25766 ft | 482 kts | 82° |
| 2026-05-04 00:19 | 41.00262 | -76.93914 | 25389 ft | 479 kts | 82° |
| 2026-05-04 00:19 | 41.00600 | -76.89548 | 25015 ft | 475 kts | 82° |
| 2026-05-04 00:19 | 41.00932 | -76.85223 | 24663 ft | 469 kts | 82° |
| 2026-05-04 00:20 | 41.01252 | -76.80962 | 24301 ft | 462 kts | 82° |
| 2026-05-04 00:20 | 41.01565 | -76.76751 | 23955 ft | 458 kts | 82° |
| 2026-05-04 00:20 | 41.01872 | -76.72624 | 23604 ft | 455 kts | 82° |
| 2026-05-04 00:20 | 41.01983 | -76.68445 | 23189 ft | 454 kts | 91° |
| 2026-05-04 00:21 | 41.01639 | -76.64310 | 22768 ft | 452 kts | 100° |
| 2026-05-04 00:21 | 41.00857 | -76.60300 | 22354 ft | 449 kts | 108° |
| 2026-05-04 00:21 | 40.99909 | -76.56380 | 21951 ft | 446 kts | 108° |
| 2026-05-04 00:21 | 40.98971 | -76.52487 | 21541 ft | 443 kts | 107° |
| 2026-05-04 00:22 | 40.98043 | -76.48623 | 21143 ft | 439 kts | 107° |
| 2026-05-04 00:22 | 40.97120 | -76.44784 | 20732 ft | 436 kts | 108° |
| 2026-05-04 00:22 | 40.96200 | -76.40974 | 20347 ft | 433 kts | 108° |
| 2026-05-04 00:22 | 40.95283 | -76.37191 | 19968 ft | 431 kts | 108° |
| 2026-05-04 00:23 | 40.94374 | -76.33428 | 19589 ft | 428 kts | 108° |
| 2026-05-04 00:23 | 40.93472 | -76.29697 | 19219 ft | 424 kts | 108° |
| 2026-05-04 00:23 | 40.92592 | -76.26065 | 18858 ft | 418 kts | 108° |
| 2026-05-04 00:23 | 40.91711 | -76.22436 | 18497 ft | 412 kts | 108° |
| 2026-05-04 00:24 | 40.90841 | -76.18863 | 18120 ft | 406 kts | 108° |
| 2026-05-04 00:24 | 40.89981 | -76.15344 | 17704 ft | 401 kts | 108° |
| 2026-05-04 00:24 | 40.89125 | -76.11841 | 17308 ft | 400 kts | 108° |
| 2026-05-04 00:24 | 40.88271 | -76.08357 | 16909 ft | 397 kts | 107° |
| 2026-05-04 00:25 | 40.87423 | -76.04893 | 16516 ft | 395 kts | 107° |
| 2026-05-04 00:25 | 40.86578 | -76.01457 | 16120 ft | 392 kts | 107° |
| 2026-05-04 00:25 | 40.86022 | -75.99194 | 15864 ft | 391 kts | 107° |
| 2026-05-04 00:25 | 40.85183 | -75.95787 | 15475 ft | 389 kts | 107° |
| 2026-05-04 00:26 | 40.84350 | -75.92405 | 15081 ft | 387 kts | 107° |
| 2026-05-04 00:26 | 40.83250 | -75.87943 | 14585 ft | 384 kts | 107° |
| 2026-05-04 00:26 | 40.82426 | -75.84604 | 14219 ft | 382 kts | 107° |
| 2026-05-04 00:26 | 40.81604 | -75.81281 | 13852 ft | 379 kts | 106° |
| 2026-05-04 00:27 | 40.80785 | -75.77984 | 13465 ft | 377 kts | 105° |
| 2026-05-04 00:27 | 40.80233 | -75.75764 | 13193 ft | 376 kts | 105° |
| 2026-05-04 00:27 | 40.79435 | -75.72561 | 12969 ft | 368 kts | 105° |
| 2026-05-04 00:27 | 40.78638 | -75.69363 | 12993 ft | 367 kts | 105° |
| 2026-05-04 00:28 | 40.77840 | -75.66160 | 12993 ft | 368 kts | 105° |
| 2026-05-04 00:28 | 40.77041 | -75.62955 | 12811 ft | 367 kts | 105° |
| 2026-05-04 00:28 | 40.76248 | -75.59771 | 12628 ft | 366 kts | 105° |
| 2026-05-04 00:28 | 40.75455 | -75.56585 | 12445 ft | 365 kts | 106° |
| 2026-05-04 00:29 | 40.74662 | -75.53414 | 12253 ft | 364 kts | 106° |
| 2026-05-04 00:29 | 40.73868 | -75.50247 | 12079 ft | 363 kts | 106° |
| 2026-05-04 00:29 | 40.73073 | -75.47090 | 11896 ft | 363 kts | 106° |
| 2026-05-04 00:29 | 40.72300 | -75.43930 | 11715 ft | 361 kts | 104° |
| 2026-05-04 00:30 | 40.71619 | -75.40754 | 11537 ft | 360 kts | 102° |
| 2026-05-04 00:30 | 40.71002 | -75.37607 | 11362 ft | 359 kts | 101° |
| 2026-05-04 00:30 | 40.70401 | -75.34425 | 11181 ft | 357 kts | 101° |
| 2026-05-04 00:30 | 40.69803 | -75.31251 | 11006 ft | 356 kts | 101° |
| 2026-05-04 00:31 | 40.69203 | -75.28128 | 10826 ft | 347 kts | 101° |
| 2026-05-04 00:31 | 40.68608 | -75.25095 | 10652 ft | 337 kts | 101° |
| 2026-05-04 00:31 | 40.68020 | -75.22148 | 10477 ft | 328 kts | 102° |
| 2026-05-04 00:31 | 40.67404 | -75.19288 | 10302 ft | 322 kts | 106° |
| 2026-05-04 00:32 | 40.66576 | -75.16584 | 10131 ft | 319 kts | 114° |
| 2026-05-04 00:32 | 40.65511 | -75.14019 | 10011 ft | 318 kts | 121° |
| 2026-05-04 00:32 | 40.64224 | -75.11641 | 10019 ft | 320 kts | 129° |
| 2026-05-04 00:32 | 40.62742 | -75.09449 | 10021 ft | 320 kts | 133° |
| 2026-05-04 00:33 | 40.61227 | -75.07300 | 10024 ft | 321 kts | 133° |
| 2026-05-04 00:33 | 40.58137 | -75.02725 | 10006 ft | 342 kts | 126° |
| 2026-05-04 00:33 | 40.56825 | -75.00124 | 10018 ft | 340 kts | 118° |
| 2026-05-04 00:34 | 40.55784 | -74.97340 | 10010 ft | 339 kts | 110° |
| 2026-05-04 00:34 | 40.54937 | -74.94455 | 10009 ft | 338 kts | 108° |
| 2026-05-04 00:34 | 40.54106 | -74.91560 | 10009 ft | 339 kts | 108° |
| 2026-05-04 00:34 | 40.53256 | -74.88671 | 10009 ft | 339 kts | 109° |
| 2026-05-04 00:35 | 40.52384 | -74.85789 | 10005 ft | 338 kts | 109° |
| 2026-05-04 00:35 | 40.51525 | -74.82985 | 10004 ft | 323 kts | 109° |
| 2026-05-04 00:35 | 40.50705 | -74.80315 | 10007 ft | 318 kts | 109° |
| 2026-05-04 00:35 | 40.49886 | -74.77625 | 10008 ft | 317 kts | 109° |
| 2026-05-04 00:36 | 40.49075 | -74.74938 | 10008 ft | 316 kts | 109° |
| 2026-05-04 00:36 | 40.48265 | -74.72252 | 10008 ft | 316 kts | 109° |
| 2026-05-04 00:36 | 40.47457 | -74.69567 | 10007 ft | 316 kts | 109° |
| 2026-05-04 00:36 | 40.46648 | -74.66883 | 10008 ft | 316 kts | 109° |
| 2026-05-04 00:37 | 40.45837 | -74.64199 | 10009 ft | 316 kts | 109° |
| 2026-05-04 00:37 | 40.45027 | -74.61512 | 10010 ft | 316 kts | 109° |
| 2026-05-04 00:37 | 40.44229 | -74.58820 | 10013 ft | 320 kts | 105° |
| 2026-05-04 00:37 | 40.43709 | -74.55976 | 10012 ft | 322 kts | 94° |
| 2026-05-04 00:38 | 40.43604 | -74.53087 | 10011 ft | 316 kts | 82° |
| 2026-05-04 00:38 | 40.43890 | -74.50308 | 10010 ft | 303 kts | 71° |
| 2026-05-04 00:38 | 40.44503 | -74.47738 | 10015 ft | 299 kts | 64° |
| 2026-05-04 00:38 | 40.45195 | -74.45213 | 10023 ft | 299 kts | 64° |
| 2026-05-04 00:39 | 40.45881 | -74.42676 | 9966 ft | 300 kts | 65° |
| 2026-05-04 00:39 | 40.46570 | -74.40103 | 9757 ft | 298 kts | 65° |
| 2026-05-04 00:39 | 40.47256 | -74.37541 | 9541 ft | 297 kts | 65° |
| 2026-05-04 00:39 | 40.47942 | -74.34986 | 9336 ft | 296 kts | 64° |
| 2026-05-04 00:40 | 40.48624 | -74.32437 | 9124 ft | 296 kts | 65° |
| 2026-05-04 00:40 | 40.49305 | -74.29892 | 8922 ft | 295 kts | 65° |
| 2026-05-04 00:40 | 40.49986 | -74.27344 | 8674 ft | 295 kts | 65° |
| 2026-05-04 00:40 | 40.50664 | -74.24802 | 8358 ft | 294 kts | 65° |
| 2026-05-04 00:41 | 40.51334 | -74.22276 | 8047 ft | 292 kts | 65° |
| 2026-05-04 00:41 | 40.52003 | -74.19763 | 7737 ft | 291 kts | 65° |
| 2026-05-04 00:41 | 40.52671 | -74.17264 | 7426 ft | 289 kts | 65° |
| 2026-05-04 00:41 | 40.53326 | -74.14815 | 7052 ft | 289 kts | 66° |
| 2026-05-04 00:42 | 40.53982 | -74.12355 | 6646 ft | 283 kts | 66° |
| 2026-05-04 00:42 | 40.54823 | -74.10118 | 6245 ft | 269 kts | 47° |
| 2026-05-04 00:42 | 40.56114 | -74.08446 | 5826 ft | 257 kts | 34° |
| 2026-05-04 00:42 | 40.57447 | -74.06957 | 5414 ft | 252 kts | 34° |
| 2026-05-04 00:43 | 40.58784 | -74.05469 | 4997 ft | 249 kts | 34° |
| 2026-05-04 00:43 | 40.60069 | -74.04038 | 4596 ft | 244 kts | 34° |
| 2026-05-04 00:43 | 40.61321 | -74.02641 | 4189 ft | 240 kts | 34° |
| 2026-05-04 00:43 | 40.62543 | -74.01274 | 3793 ft | 237 kts | 34° |
| 2026-05-04 00:44 | 40.63786 | -73.99883 | 3437 ft | 232 kts | 34° |
| 2026-05-04 00:44 | 40.64984 | -73.98546 | 3185 ft | 227 kts | 34° |
| 2026-05-04 00:44 | 40.66192 | -73.97249 | 2938 ft | 223 kts | 27° |
| 2026-05-04 00:44 | 40.67491 | -73.96147 | 2680 ft | 221 kts | 27° |
| 2026-05-04 00:45 | 40.68780 | -73.95034 | 2540 ft | 221 kts | 27° |
| 2026-05-04 00:45 | 40.69958 | -73.93835 | 2506 ft | 227 kts | 41° |
| 2026-05-04 00:45 | 40.71032 | -73.92313 | 2362 ft | 224 kts | 42° |
| 2026-05-04 00:45 | 40.71905 | -73.90646 | 2144 ft | 221 kts | 65° |
| 2026-05-04 00:46 | 40.72278 | -73.88745 | 1902 ft | 211 kts | 74° |
| 2026-05-04 00:46 | 40.72582 | -73.86937 | 1697 ft | 197 kts | 74° |
| 2026-05-04 00:46 | 40.72978 | -73.85338 | 1435 ft | 185 kts | 56° |
| 2026-05-04 00:46 | 40.73798 | -73.84156 | 1171 ft | 168 kts | 28° |
| 2026-05-04 00:47 | 40.74763 | -73.83584 | 923 ft | 145 kts | 6° |
| 2026-05-04 00:47 | 40.75702 | -73.83533 | 594 ft | 137 kts | 347° |
| 2026-05-04 00:47 | 40.76425 | -73.84026 | 356 ft | 128 kts | 304° |
| 2026-05-04 00:47 | 40.76873 | -73.85043 | 164 ft | 133 kts | 304° |
| 2026-05-04 00:48 | 40.77346 | -73.86004 | 26 ft | 113 kts | 302° |
| 2026-05-04 00:48 | 40.77659 | -73.86652 | 14 ft | 61 kts | 301° |
| 2026-05-04 00:48 | 40.77861 | -73.87078 | 15 ft | 54 kts | 302° |
| 2026-05-04 00:48 | 40.78024 | -73.87416 | 14 ft | 35 kts | 302° |
| 2026-05-04 00:49 | 40.78058 | -73.87556 | 15 ft | 13 kts | 266° |
| 2026-05-04 00:49 | 40.78012 | -73.87658 | 16 ft | 15 kts | 217° |
| 2026-05-04 00:49 | 40.77928 | -73.87730 | 18 ft | 14 kts | 212° |
| 2026-05-04 00:49 | 40.77838 | -73.87803 | 20 ft | 16 kts | 210° |
| 2026-05-04 00:50 | 40.77742 | -73.87879 | 21 ft | 17 kts | 214° |
| 2026-05-04 00:50 | 40.77636 | -73.87971 | 22 ft | 20 kts | 211° |
| 2026-05-04 00:50 | 40.77526 | -73.88062 | 20 ft | 17 kts | 213° |
| 2026-05-04 00:50 | 40.77423 | -73.88149 | 21 ft | 20 kts | 212° |
| 2026-05-04 00:51 | 40.77336 | -73.88219 | 20 ft | 12 kts | 212° |
| 2026-05-04 00:51 | 40.77294 | -73.88294 | 20 ft | 9 kts | 279° |
| 2026-05-04 00:51 | 40.77320 | -73.88324 | 19 ft | 2 kts | 328° |
| 2026-05-04 00:51 | 40.77339 | -73.88339 | 19 ft | 4 kts | 330° |
| 2026-05-04 00:52 | 40.77347 | -73.88344 | 19 ft | 0 kts | 331° |